sensor_id;sensor_type;location;lat;lon;timestamp;pressure;altitude;pressure_sealevel;temperature;humidity
20895;BME280;10607;42.066;24.742;2022-09-16T00:01:14;97524.16;;;24.55;nan
20895;BME280;10607;42.066;24.742;2022-09-16T00:03:40;97521.41;;;24.47;nan
20895;BME280;10607;42.066;24.742;2022-09-16T00:06:11;97518.44;;;24.50;nan
20895;BME280;10607;42.066;24.742;2022-09-16T00:08:40;97511.56;;;24.55;nan
20895;BME280;10607;42.066;24.742;2022-09-16T00:11:07;97509.72;;;24.56;nan
20895;BME280;10607;42.066;24.742;2022-09-16T00:13:33;97512.13;;;24.67;nan
20895;BME280;10607;42.066;24.742;2022-09-16T00:15:58;97502.72;;;24.71;nan
20895;BME280;10607;42.066;24.742;2022-09-16T00:18:24;97499.50;;;24.68;nan
20895;BME280;10607;42.066;24.742;2022-09-16T00:20:50;97515.00;;;24.74;nan
20895;BME280;10607;42.066;24.742;2022-09-16T00:23:17;97516.72;;;24.75;nan
20895;BME280;10607;42.066;24.742;2022-09-16T00:25:42;97519.56;;;24.73;nan
20895;BME280;10607;42.066;24.742;2022-09-16T00:28:08;97529.78;;;24.70;nan
20895;BME280;10607;42.066;24.742;2022-09-16T00:30:34;97524.91;;;24.65;nan
20895;BME280;10607;42.066;24.742;2022-09-16T00:32:59;97514.38;;;24.80;nan
20895;BME280;10607;42.066;24.742;2022-09-16T00:35:25;97513.53;;;24.80;nan
20895;BME280;10607;42.066;24.742;2022-09-16T00:37:50;97517.28;;;24.87;nan
20895;BME280;10607;42.066;24.742;2022-09-16T00:40:16;97516.75;;;24.83;nan
20895;BME280;10607;42.066;24.742;2022-09-16T00:42:41;97510.84;;;24.80;nan
20895;BME280;10607;42.066;24.742;2022-09-16T00:45:22;97524.63;;;24.76;nan
20895;BME280;10607;42.066;24.742;2022-09-16T00:47:58;97526.16;;;24.79;nan
20895;BME280;10607;42.066;24.742;2022-09-16T00:53:03;97535.94;;;24.88;nan
20895;BME280;10607;42.066;24.742;2022-09-16T00:55:32;97539.31;;;24.90;nan
20895;BME280;10607;42.066;24.742;2022-09-16T00:58:24;97532.78;;;24.93;nan
20895;BME280;10607;42.066;24.742;2022-09-16T01:00:52;97526.72;;;24.99;nan
20895;BME280;10607;42.066;24.742;2022-09-16T01:03:18;97519.56;;;25.08;nan
20895;BME280;10607;42.066;24.742;2022-09-16T01:05:44;97541.09;;;25.08;nan
20895;BME280;10607;42.066;24.742;2022-09-16T01:08:11;97539.34;;;24.98;nan
20895;BME280;10607;42.066;24.742;2022-09-16T01:10:40;97535.16;;;24.96;nan
20895;BME280;10607;42.066;24.742;2022-09-16T01:13:09;97537.19;;;25.02;nan
20895;BME280;10607;42.066;24.742;2022-09-16T01:22:05;97550.72;;;25.18;nan
20895;BME280;10607;42.066;24.742;2022-09-16T01:24:49;97546.88;;;25.21;nan
20895;BME280;10607;42.066;24.742;2022-09-16T01:27:20;97547.59;;;25.31;nan
20895;BME280;10607;42.066;24.742;2022-09-16T01:32:38;97545.91;;;25.30;nan
20895;BME280;10607;42.066;24.742;2022-09-16T01:37:59;97536.34;;;25.02;nan
20895;BME280;10607;42.066;24.742;2022-09-16T01:40:51;97541.94;;;24.74;nan
20895;BME280;10607;42.066;24.742;2022-09-16T01:48:57;97541.78;;;24.49;nan
20895;BME280;10607;42.066;24.742;2022-09-16T01:51:56;97537.28;;;24.50;nan
20895;BME280;10607;42.066;24.742;2022-09-16T01:54:31;97539.19;;;24.40;nan
20895;BME280;10607;42.066;24.742;2022-09-16T01:57:07;97532.44;;;24.35;nan
20895;BME280;10607;42.066;24.742;2022-09-16T02:00:20;97537.34;;;24.40;nan
20895;BME280;10607;42.066;24.742;2022-09-16T02:02:43;97530.94;;;24.41;nan
20895;BME280;10607;42.066;24.742;2022-09-16T02:05:15;97526.63;;;24.48;nan
20895;BME280;10607;42.066;24.742;2022-09-16T02:07:47;97525.63;;;24.49;nan
20895;BME280;10607;42.066;24.742;2022-09-16T02:10:25;97524.69;;;24.59;nan
20895;BME280;10607;42.066;24.742;2022-09-16T02:12:54;97524.38;;;24.62;nan
20895;BME280;10607;42.066;24.742;2022-09-16T02:15:24;97525.44;;;24.69;nan
20895;BME280;10607;42.066;24.742;2022-09-16T02:17:56;97521.81;;;24.86;nan
20895;BME280;10607;42.066;24.742;2022-09-16T02:20:26;97530.78;;;25.03;nan
20895;BME280;10607;42.066;24.742;2022-09-16T02:23:00;97531.81;;;25.02;nan
20895;BME280;10607;42.066;24.742;2022-09-16T02:25:30;97538.94;;;24.77;nan
20895;BME280;10607;42.066;24.742;2022-09-16T02:27:59;97540.47;;;24.53;nan
20895;BME280;10607;42.066;24.742;2022-09-16T02:30:26;97555.09;;;24.33;nan
20895;BME280;10607;42.066;24.742;2022-09-16T02:33:02;97550.94;;;24.12;nan
20895;BME280;10607;42.066;24.742;2022-09-16T02:35:33;97544.88;;;24.10;nan
20895;BME280;10607;42.066;24.742;2022-09-16T02:38:40;97553.56;;;24.04;nan
20895;BME280;10607;42.066;24.742;2022-09-16T02:41:06;97557.69;;;23.99;nan
20895;BME280;10607;42.066;24.742;2022-09-16T02:43:33;97562.31;;;23.88;nan
20895;BME280;10607;42.066;24.742;2022-09-16T02:53:51;97568.88;;;24.12;nan
20895;BME280;10607;42.066;24.742;2022-09-16T02:56:35;97577.91;;;24.03;nan
20895;BME280;10607;42.066;24.742;2022-09-16T02:59:02;97575.53;;;23.82;nan
20895;BME280;10607;42.066;24.742;2022-09-16T03:01:32;97568.66;;;23.87;nan
20895;BME280;10607;42.066;24.742;2022-09-16T03:03:58;97578.97;;;23.92;nan
20895;BME280;10607;42.066;24.742;2022-09-16T03:06:25;97574.59;;;23.91;nan
20895;BME280;10607;42.066;24.742;2022-09-16T03:08:53;97574.91;;;23.88;nan
20895;BME280;10607;42.066;24.742;2022-09-16T03:11:34;97569.81;;;23.85;nan
20895;BME280;10607;42.066;24.742;2022-09-16T03:27:39;97549.84;;;24.05;nan
20895;BME280;10607;42.066;24.742;2022-09-16T03:30:09;97542.94;;;24.03;nan
20895;BME280;10607;42.066;24.742;2022-09-16T03:33:24;97548.47;;;24.01;nan
20895;BME280;10607;42.066;24.742;2022-09-16T03:35:56;97546.19;;;23.88;nan
20895;BME280;10607;42.066;24.742;2022-09-16T03:38:23;97540.91;;;23.69;nan
20895;BME280;10607;42.066;24.742;2022-09-16T03:40:49;97552.22;;;23.54;nan
20895;BME280;10607;42.066;24.742;2022-09-16T03:43:15;97556.59;;;23.55;nan
20895;BME280;10607;42.066;24.742;2022-09-16T03:45:42;97553.81;;;23.47;nan
20895;BME280;10607;42.066;24.742;2022-09-16T03:48:08;97550.22;;;23.56;nan
20895;BME280;10607;42.066;24.742;2022-09-16T03:50:34;97541.78;;;23.69;nan
20895;BME280;10607;42.066;24.742;2022-09-16T03:53:00;97542.34;;;23.91;nan
20895;BME280;10607;42.066;24.742;2022-09-16T03:55:26;97542.00;;;24.12;nan
20895;BME280;10607;42.066;24.742;2022-09-16T03:57:55;97528.84;;;24.27;nan
20895;BME280;10607;42.066;24.742;2022-09-16T04:00:20;97534.50;;;24.42;nan
20895;BME280;10607;42.066;24.742;2022-09-16T04:02:47;97528.06;;;24.61;nan
20895;BME280;10607;42.066;24.742;2022-09-16T04:05:12;97523.63;;;24.77;nan
20895;BME280;10607;42.066;24.742;2022-09-16T04:07:38;97527.41;;;24.93;nan
20895;BME280;10607;42.066;24.742;2022-09-16T04:10:05;97539.06;;;25.10;nan
20895;BME280;10607;42.066;24.742;2022-09-16T04:12:31;97538.31;;;25.26;nan
20895;BME280;10607;42.066;24.742;2022-09-16T04:14:56;97540.56;;;25.39;nan
20895;BME280;10607;42.066;24.742;2022-09-16T04:17:22;97545.06;;;25.30;nan
20895;BME280;10607;42.066;24.742;2022-09-16T04:19:48;97539.72;;;25.04;nan
20895;BME280;10607;42.066;24.742;2022-09-16T04:22:14;97540.78;;;24.76;nan
20895;BME280;10607;42.066;24.742;2022-09-16T04:24:39;97541.56;;;24.69;nan
20895;BME280;10607;42.066;24.742;2022-09-16T04:27:05;97540.50;;;24.62;nan
20895;BME280;10607;42.066;24.742;2022-09-16T04:29:31;97539.38;;;24.64;nan
20895;BME280;10607;42.066;24.742;2022-09-16T04:31:57;97544.75;;;24.64;nan
20895;BME280;10607;42.066;24.742;2022-09-16T04:34:22;97537.13;;;24.60;nan
20895;BME280;10607;42.066;24.742;2022-09-16T04:36:48;97548.53;;;24.53;nan
20895;BME280;10607;42.066;24.742;2022-09-16T04:39:13;97544.38;;;24.59;nan
20895;BME280;10607;42.066;24.742;2022-09-16T04:41:38;97542.09;;;24.46;nan
20895;BME280;10607;42.066;24.742;2022-09-16T04:44:04;97551.94;;;24.37;nan
20895;BME280;10607;42.066;24.742;2022-09-16T04:46:30;97551.56;;;24.32;nan
20895;BME280;10607;42.066;24.742;2022-09-16T04:48:57;97540.84;;;24.41;nan
20895;BME280;10607;42.066;24.742;2022-09-16T04:51:23;97547.22;;;24.57;nan
20895;BME280;10607;42.066;24.742;2022-09-16T04:53:52;97546.84;;;24.52;nan
20895;BME280;10607;42.066;24.742;2022-09-16T04:56:20;97550.13;;;24.64;nan
20895;BME280;10607;42.066;24.742;2022-09-16T04:58:48;97550.53;;;24.77;nan
20895;BME280;10607;42.066;24.742;2022-09-16T05:01:19;97554.97;;;24.95;nan
20895;BME280;10607;42.066;24.742;2022-09-16T05:03:48;97562.44;;;25.09;nan
20895;BME280;10607;42.066;24.742;2022-09-16T05:06:22;97564.75;;;25.22;nan
20895;BME280;10607;42.066;24.742;2022-09-16T05:08:48;97563.44;;;25.34;nan
20895;BME280;10607;42.066;24.742;2022-09-16T05:11:19;97568.19;;;25.49;nan
20895;BME280;10607;42.066;24.742;2022-09-16T05:13:45;97570.91;;;25.65;nan
20895;BME280;10607;42.066;24.742;2022-09-16T05:16:14;97564.19;;;25.77;nan
20895;BME280;10607;42.066;24.742;2022-09-16T05:18:41;97572.69;;;25.91;nan
20895;BME280;10607;42.066;24.742;2022-09-16T05:21:10;97567.28;;;25.99;nan
20895;BME280;10607;42.066;24.742;2022-09-16T05:23:36;97568.47;;;25.96;nan
20895;BME280;10607;42.066;24.742;2022-09-16T05:26:26;97577.88;;;25.84;nan
20895;BME280;10607;42.066;24.742;2022-09-16T05:28:52;97575.16;;;25.76;nan
20895;BME280;10607;42.066;24.742;2022-09-16T05:33:45;97566.88;;;25.53;nan
20895;BME280;10607;42.066;24.742;2022-09-16T05:36:13;97561.25;;;25.46;nan
20895;BME280;10607;42.066;24.742;2022-09-16T05:38:39;97550.34;;;25.56;nan
20895;BME280;10607;42.066;24.742;2022-09-16T05:41:05;97569.38;;;25.54;nan
20895;BME280;10607;42.066;24.742;2022-09-16T05:43:32;97562.81;;;25.49;nan
20895;BME280;10607;42.066;24.742;2022-09-16T05:45:58;97547.97;;;25.36;nan
20895;BME280;10607;42.066;24.742;2022-09-16T05:48:24;97549.31;;;25.41;nan
20895;BME280;10607;42.066;24.742;2022-09-16T05:51:01;97540.56;;;25.63;nan
20895;BME280;10607;42.066;24.742;2022-09-16T05:53:28;97555.09;;;25.78;nan
20895;BME280;10607;42.066;24.742;2022-09-16T05:56:06;97542.19;;;26.07;nan
20895;BME280;10607;42.066;24.742;2022-09-16T05:58:35;97537.78;;;26.30;nan
20895;BME280;10607;42.066;24.742;2022-09-16T06:01:09;97538.25;;;26.50;nan
20895;BME280;10607;42.066;24.742;2022-09-16T06:03:36;97533.16;;;26.72;nan
20895;BME280;10607;42.066;24.742;2022-09-16T06:06:15;97529.84;;;27.01;nan
20895;BME280;10607;42.066;24.742;2022-09-16T06:08:42;97529.78;;;27.26;nan
20895;BME280;10607;42.066;24.742;2022-09-16T06:11:10;97527.47;;;27.46;nan
20895;BME280;10607;42.066;24.742;2022-09-16T06:13:36;97526.06;;;27.58;nan
20895;BME280;10607;42.066;24.742;2022-09-16T06:16:02;97515.84;;;27.68;nan
20895;BME280;10607;42.066;24.742;2022-09-16T06:18:29;97517.56;;;27.84;nan
20895;BME280;10607;42.066;24.742;2022-09-16T06:20:55;97521.22;;;28.00;nan
20895;BME280;10607;42.066;24.742;2022-09-16T06:23:22;97521.66;;;28.26;nan
20895;BME280;10607;42.066;24.742;2022-09-16T06:25:47;97513.91;;;28.38;nan
20895;BME280;10607;42.066;24.742;2022-09-16T06:28:14;97522.03;;;28.61;nan
20895;BME280;10607;42.066;24.742;2022-09-16T06:30:40;97528.38;;;28.83;nan
20895;BME280;10607;42.066;24.742;2022-09-16T06:33:06;97529.28;;;29.05;nan
20895;BME280;10607;42.066;24.742;2022-09-16T06:35:33;97538.91;;;29.08;nan
20895;BME280;10607;42.066;24.742;2022-09-16T06:38:00;97545.25;;;29.00;nan
20895;BME280;10607;42.066;24.742;2022-09-16T06:40:26;97544.50;;;29.06;nan
20895;BME280;10607;42.066;24.742;2022-09-16T06:42:54;97533.44;;;28.71;nan
20895;BME280;10607;42.066;24.742;2022-09-16T06:45:20;97525.09;;;28.73;nan
20895;BME280;10607;42.066;24.742;2022-09-16T06:47:46;97534.66;;;28.84;nan
20895;BME280;10607;42.066;24.742;2022-09-16T06:50:11;97528.38;;;28.83;nan
20895;BME280;10607;42.066;24.742;2022-09-16T06:52:37;97536.41;;;29.21;nan
20895;BME280;10607;42.066;24.742;2022-09-16T06:55:03;97535.03;;;29.47;nan
20895;BME280;10607;42.066;24.742;2022-09-16T06:57:29;97541.91;;;29.64;nan
20895;BME280;10607;42.066;24.742;2022-09-16T06:59:55;97534.63;;;29.65;nan
20895;BME280;10607;42.066;24.742;2022-09-16T07:02:20;97535.81;;;29.62;nan
20895;BME280;10607;42.066;24.742;2022-09-16T07:04:45;97536.94;;;29.68;nan
20895;BME280;10607;42.066;24.742;2022-09-16T07:07:11;97538.41;;;29.85;nan
20895;BME280;10607;42.066;24.742;2022-09-16T07:09:38;97543.72;;;29.93;nan
20895;BME280;10607;42.066;24.742;2022-09-16T07:12:04;97543.38;;;30.03;nan
20895;BME280;10607;42.066;24.742;2022-09-16T07:14:29;97560.19;;;30.35;nan
20895;BME280;10607;42.066;24.742;2022-09-16T07:16:57;97575.56;;;30.28;nan
20895;BME280;10607;42.066;24.742;2022-09-16T07:19:23;97571.09;;;30.20;nan
20895;BME280;10607;42.066;24.742;2022-09-16T07:21:49;97568.72;;;30.10;nan
20895;BME280;10607;42.066;24.742;2022-09-16T07:24:14;97576.53;;;29.98;nan
20895;BME280;10607;42.066;24.742;2022-09-16T07:26:41;97572.41;;;29.81;nan
20895;BME280;10607;42.066;24.742;2022-09-16T07:29:10;97576.34;;;30.00;nan
20895;BME280;10607;42.066;24.742;2022-09-16T07:31:36;97561.97;;;30.28;nan
20895;BME280;10607;42.066;24.742;2022-09-16T07:34:04;97551.97;;;30.50;nan
20895;BME280;10607;42.066;24.742;2022-09-16T07:36:33;97545.97;;;30.89;nan
20895;BME280;10607;42.066;24.742;2022-09-16T07:38:59;97544.31;;;31.30;nan
20895;BME280;10607;42.066;24.742;2022-09-16T07:41:27;97550.91;;;31.55;nan
20895;BME280;10607;42.066;24.742;2022-09-16T07:43:54;97554.09;;;31.66;nan
20895;BME280;10607;42.066;24.742;2022-09-16T07:46:23;58645.81;;;-146.21;100.00
20895;BME280;10607;42.066;24.742;2022-09-16T07:48:49;58645.81;;;-146.21;100.00
20895;BME280;10607;42.066;24.742;2022-09-16T07:51:17;58645.81;;;-146.21;100.00
20895;BME280;10607;42.066;24.742;2022-09-16T07:53:45;58645.81;;;-146.21;100.00
20895;BME280;10607;42.066;24.742;2022-09-16T07:56:16;58645.81;;;-146.21;100.00
20895;BME280;10607;42.066;24.742;2022-09-16T07:58:43;58645.81;;;-146.21;100.00
20895;BME280;10607;42.066;24.742;2022-09-16T08:01:10;58645.81;;;-146.21;100.00
20895;BME280;10607;42.066;24.742;2022-09-16T08:03:37;58645.81;;;-146.21;100.00
20895;BME280;10607;42.066;24.742;2022-09-16T08:06:05;58645.81;;;-146.21;100.00
20895;BME280;10607;42.066;24.742;2022-09-16T08:08:32;58645.81;;;-146.21;100.00
20895;BME280;10607;42.066;24.742;2022-09-16T08:10:59;58645.81;;;-146.21;100.00
20895;BME280;10607;42.066;24.742;2022-09-16T08:13:25;58645.81;;;-146.21;100.00
20895;BME280;10607;42.066;24.742;2022-09-16T08:15:53;58645.81;;;-146.21;100.00
20895;BME280;10607;42.066;24.742;2022-09-16T08:18:19;58645.81;;;-146.21;100.00
20895;BME280;10607;42.066;24.742;2022-09-16T08:20:45;58645.81;;;-146.21;100.00
20895;BME280;10607;42.066;24.742;2022-09-16T08:23:11;58645.81;;;-146.21;100.00
20895;BME280;10607;42.066;24.742;2022-09-16T08:25:38;58645.81;;;-146.21;100.00
20895;BME280;10607;42.066;24.742;2022-09-16T08:28:04;58645.81;;;-146.21;100.00
20895;BME280;10607;42.066;24.742;2022-09-16T08:30:29;58645.81;;;-146.21;100.00
20895;BME280;10607;42.066;24.742;2022-09-16T08:32:56;58645.81;;;-146.21;100.00
20895;BME280;10607;42.066;24.742;2022-09-16T08:35:22;58645.81;;;-146.21;100.00
20895;BME280;10607;42.066;24.742;2022-09-16T08:37:48;58645.81;;;-146.21;100.00
20895;BME280;10607;42.066;24.742;2022-09-16T08:40:15;58645.81;;;-146.21;100.00
20895;BME280;10607;42.066;24.742;2022-09-16T08:45:25;58645.81;;;-146.21;100.00
20895;BME280;10607;42.066;24.742;2022-09-16T08:50:43;58645.81;;;-146.21;100.00
20895;BME280;10607;42.066;24.742;2022-09-16T08:55:55;58645.81;;;-146.21;100.00
20895;BME280;10607;42.066;24.742;2022-09-16T08:58:54;58645.81;;;-146.21;100.00
20895;BME280;10607;42.066;24.742;2022-09-16T09:01:33;58645.81;;;-146.21;100.00
20895;BME280;10607;42.066;24.742;2022-09-16T09:04:00;58645.81;;;-146.21;100.00
20895;BME280;10607;42.066;24.742;2022-09-16T09:14:25;58645.81;;;-146.21;100.00
20895;BME280;10607;42.066;24.742;2022-09-16T09:22:02;58645.81;;;-146.21;100.00
20895;BME280;10607;42.066;24.742;2022-09-16T09:30:11;58645.81;;;-146.21;100.00
20895;BME280;10607;42.066;24.742;2022-09-16T09:33:28;58645.81;;;-146.21;100.00
20895;BME280;10607;42.066;24.742;2022-09-16T09:41:47;58645.81;;;-146.21;100.00
20895;BME280;10607;42.066;24.742;2022-09-16T09:44:45;58645.81;;;-146.21;100.00
20895;BME280;10607;42.066;24.742;2022-09-16T09:47:20;58645.81;;;-146.21;100.00
20895;BME280;10607;42.066;24.742;2022-09-16T09:49:50;58645.81;;;-146.21;100.00
20895;BME280;10607;42.066;24.742;2022-09-16T09:52:25;58645.81;;;-146.21;100.00
20895;BME280;10607;42.066;24.742;2022-09-16T09:54:54;58645.81;;;-146.21;100.00
20895;BME280;10607;42.066;24.742;2022-09-16T10:00:04;58645.81;;;-146.21;100.00
20895;BME280;10607;42.066;24.742;2022-09-16T10:02:40;58645.81;;;-146.21;100.00
20895;BME280;10607;42.066;24.742;2022-09-16T10:05:18;58645.81;;;-146.21;100.00
20895;BME280;10607;42.066;24.742;2022-09-16T10:07:45;58645.81;;;-146.21;100.00
20895;BME280;10607;42.066;24.742;2022-09-16T10:10:13;58645.81;;;-146.21;100.00
20895;BME280;10607;42.066;24.742;2022-09-16T10:12:40;58645.81;;;-146.21;100.00
20895;BME280;10607;42.066;24.742;2022-09-16T10:17:48;58645.81;;;-146.21;100.00
20895;BME280;10607;42.066;24.742;2022-09-16T10:20:24;58645.81;;;-146.21;100.00
20895;BME280;10607;42.066;24.742;2022-09-16T10:23:15;58645.81;;;-146.21;100.00
20895;BME280;10607;42.066;24.742;2022-09-16T10:25:44;58645.81;;;-146.21;100.00
20895;BME280;10607;42.066;24.742;2022-09-16T10:28:22;58645.81;;;-146.21;100.00
20895;BME280;10607;42.066;24.742;2022-09-16T10:30:50;58645.81;;;-146.21;100.00
20895;BME280;10607;42.066;24.742;2022-09-16T10:36:00;58645.81;;;-146.21;100.00
20895;BME280;10607;42.066;24.742;2022-09-16T10:41:15;58645.81;;;-146.21;100.00
20895;BME280;10607;42.066;24.742;2022-09-16T10:43:56;58645.81;;;-146.21;100.00
20895;BME280;10607;42.066;24.742;2022-09-16T10:46:23;58645.81;;;-146.21;100.00
20895;BME280;10607;42.066;24.742;2022-09-16T10:48:50;58645.81;;;-146.21;100.00
20895;BME280;10607;42.066;24.742;2022-09-16T10:51:25;58645.81;;;-146.21;100.00
20895;BME280;10607;42.066;24.742;2022-09-16T10:53:59;58645.81;;;-146.21;100.00
20895;BME280;10607;42.066;24.742;2022-09-16T10:56:32;58645.81;;;-146.21;100.00
20895;BME280;10607;42.066;24.742;2022-09-16T10:59:08;58645.81;;;-146.21;100.00
20895;BME280;10607;42.066;24.742;2022-09-16T11:37:36;58645.81;;;-146.21;100.00
20895;BME280;10607;42.066;24.742;2022-09-16T11:43:00;58645.81;;;-146.21;100.00
20895;BME280;10607;42.066;24.742;2022-09-16T11:45:45;58645.81;;;-146.21;100.00
20895;BME280;10607;42.066;24.742;2022-09-16T11:56:49;58645.81;;;-146.21;100.00
20895;BME280;10607;42.066;24.742;2022-09-16T11:59:27;58645.81;;;-146.21;100.00
20895;BME280;10607;42.066;24.742;2022-09-16T12:02:09;58645.81;;;-146.21;100.00
20895;BME280;10607;42.066;24.742;2022-09-16T12:04:45;58645.81;;;-146.21;100.00
20895;BME280;10607;42.066;24.742;2022-09-16T12:10:19;58645.81;;;-146.21;100.00
20895;BME280;10607;42.066;24.742;2022-09-16T12:13:23;58645.81;;;-146.21;100.00
20895;BME280;10607;42.066;24.742;2022-09-16T12:16:00;58645.81;;;-146.21;100.00
20895;BME280;10607;42.066;24.742;2022-09-16T12:18:39;58645.81;;;-146.21;100.00
20895;BME280;10607;42.066;24.742;2022-09-16T12:21:21;58645.81;;;-146.21;100.00
20895;BME280;10607;42.066;24.742;2022-09-16T12:24:03;58645.81;;;-146.21;100.00
20895;BME280;10607;42.066;24.742;2022-09-16T12:26:33;58645.81;;;-146.21;100.00
20895;BME280;10607;42.066;24.742;2022-09-16T12:29:17;58645.81;;;-146.21;100.00
20895;BME280;10607;42.066;24.742;2022-09-16T12:31:59;58645.81;;;-146.21;100.00
20895;BME280;10607;42.066;24.742;2022-09-16T12:34:48;58645.81;;;-146.21;100.00
20895;BME280;10607;42.066;24.742;2022-09-16T12:39:42;58645.81;;;-146.21;100.00
20895;BME280;10607;42.066;24.742;2022-09-16T12:45:09;58645.81;;;-146.21;100.00
20895;BME280;10607;42.066;24.742;2022-09-16T12:50:56;58645.81;;;-146.21;100.00
20895;BME280;10607;42.066;24.742;2022-09-16T12:59:39;58645.81;;;-146.21;100.00
20895;BME280;10607;42.066;24.742;2022-09-16T13:02:15;58645.81;;;-146.21;100.00
20895;BME280;10607;42.066;24.742;2022-09-16T13:04:47;58645.81;;;-146.21;100.00
20895;BME280;10607;42.066;24.742;2022-09-16T13:07:22;58645.81;;;-146.21;100.00
20895;BME280;10607;42.066;24.742;2022-09-16T13:09:48;58645.81;;;-146.21;100.00
20895;BME280;10607;42.066;24.742;2022-09-16T13:12:25;58645.81;;;-146.21;100.00
20895;BME280;10607;42.066;24.742;2022-09-16T13:14:54;58645.81;;;-146.21;100.00
20895;BME280;10607;42.066;24.742;2022-09-16T13:17:34;58645.81;;;-146.21;100.00
20895;BME280;10607;42.066;24.742;2022-09-16T13:20:11;58645.81;;;-146.21;100.00
20895;BME280;10607;42.066;24.742;2022-09-16T13:25:56;58645.81;;;-146.21;100.00
20895;BME280;10607;42.066;24.742;2022-09-16T13:28:46;58645.81;;;-146.21;100.00
20895;BME280;10607;42.066;24.742;2022-09-16T13:33:38;58645.81;;;-146.21;100.00
20895;BME280;10607;42.066;24.742;2022-09-16T13:38:51;58645.81;;;-146.21;100.00
20895;BME280;10607;42.066;24.742;2022-09-16T13:43:54;58645.81;;;-146.21;100.00
20895;BME280;10607;42.066;24.742;2022-09-16T13:46:31;58645.81;;;-146.21;100.00
20895;BME280;10607;42.066;24.742;2022-09-16T13:51:31;97421.19;;;31.76;nan
20895;BME280;10607;42.066;24.742;2022-09-16T13:53:58;97423.06;;;31.49;nan
20895;BME280;10607;42.066;24.742;2022-09-16T13:59:17;97437.59;;;31.21;nan
20895;BME280;10607;42.066;24.742;2022-09-16T14:02:16;97454.25;;;31.05;nan
20895;BME280;10607;42.066;24.742;2022-09-16T14:05:22;97466.84;;;30.77;nan
20895;BME280;10607;42.066;24.742;2022-09-16T14:07:58;97450.56;;;30.43;nan
20895;BME280;10607;42.066;24.742;2022-09-16T14:13:15;97442.41;;;29.65;nan
20895;BME280;10607;42.066;24.742;2022-09-16T14:15:45;97438.00;;;29.64;nan
20895;BME280;10607;42.066;24.742;2022-09-16T14:18:13;97432.41;;;29.65;nan
20895;BME280;10607;42.066;24.742;2022-09-16T14:23:22;97430.78;;;29.49;nan
20895;BME280;10607;42.066;24.742;2022-09-16T14:25:48;97428.00;;;29.43;nan
20895;BME280;10607;42.066;24.742;2022-09-16T14:28:27;97431.13;;;29.40;nan
20895;BME280;10607;42.066;24.742;2022-09-16T14:31:00;97437.03;;;29.28;nan
20895;BME280;10607;42.066;24.742;2022-09-16T14:33:33;97442.91;;;29.32;nan
20895;BME280;10607;42.066;24.742;2022-09-16T14:36:08;97438.66;;;29.44;nan
20895;BME280;10607;42.066;24.742;2022-09-16T14:38:40;97445.63;;;29.53;nan
20895;BME280;10607;42.066;24.742;2022-09-16T14:41:07;97441.94;;;29.61;nan
20895;BME280;10607;42.066;24.742;2022-09-16T14:43:36;97445.03;;;29.73;nan
20895;BME280;10607;42.066;24.742;2022-09-16T14:46:05;97438.19;;;29.62;nan
20895;BME280;10607;42.066;24.742;2022-09-16T14:48:34;97445.03;;;29.58;nan
20895;BME280;10607;42.066;24.742;2022-09-16T14:51:02;97456.53;;;29.60;nan
20895;BME280;10607;42.066;24.742;2022-09-16T14:53:33;97461.91;;;29.53;nan
20895;BME280;10607;42.066;24.742;2022-09-16T14:56:01;97461.94;;;29.60;nan
20895;BME280;10607;42.066;24.742;2022-09-16T14:58:28;97467.94;;;29.70;nan
20895;BME280;10607;42.066;24.742;2022-09-16T15:01:08;97462.78;;;29.75;nan
20895;BME280;10607;42.066;24.742;2022-09-16T15:03:52;97472.00;;;29.81;nan
20895;BME280;10607;42.066;24.742;2022-09-16T15:06:21;97466.38;;;29.83;nan
20895;BME280;10607;42.066;24.742;2022-09-16T15:09:15;97464.94;;;29.87;nan
20895;BME280;10607;42.066;24.742;2022-09-16T15:11:55;97464.53;;;29.83;nan
20895;BME280;10607;42.066;24.742;2022-09-16T15:14:24;97455.56;;;29.68;nan
20895;BME280;10607;42.066;24.742;2022-09-16T15:16:58;97455.47;;;29.54;nan
20895;BME280;10607;42.066;24.742;2022-09-16T15:19:31;97448.56;;;29.52;nan
20895;BME280;10607;42.066;24.742;2022-09-16T15:21:58;97449.31;;;29.46;nan
20895;BME280;10607;42.066;24.742;2022-09-16T15:24:26;97437.19;;;29.42;nan
20895;BME280;10607;42.066;24.742;2022-09-16T15:26:55;97434.84;;;29.38;nan
20895;BME280;10607;42.066;24.742;2022-09-16T15:31:47;97446.47;;;29.32;nan
20895;BME280;10607;42.066;24.742;2022-09-16T15:36:44;97451.41;;;29.29;nan
20895;BME280;10607;42.066;24.742;2022-09-16T15:39:27;97458.13;;;29.33;nan
20895;BME280;10607;42.066;24.742;2022-09-16T15:44:34;97447.50;;;29.31;nan
20895;BME280;10607;42.066;24.742;2022-09-16T15:47:00;97436.66;;;29.31;nan
20895;BME280;10607;42.066;24.742;2022-09-16T15:49:27;97438.44;;;29.24;nan
20895;BME280;10607;42.066;24.742;2022-09-16T15:51:55;97446.13;;;29.21;nan
20895;BME280;10607;42.066;24.742;2022-09-16T15:54:46;97440.63;;;29.14;nan
20895;BME280;10607;42.066;24.742;2022-09-16T16:05:16;97420.50;;;29.08;nan
20895;BME280;10607;42.066;24.742;2022-09-16T16:07:48;97415.66;;;29.04;nan
20895;BME280;10607;42.066;24.742;2022-09-16T16:10:28;97417.47;;;28.96;nan
20895;BME280;10607;42.066;24.742;2022-09-16T16:12:58;97416.19;;;28.92;nan
20895;BME280;10607;42.066;24.742;2022-09-16T16:15:35;97415.34;;;28.77;nan
20895;BME280;10607;42.066;24.742;2022-09-16T16:18:05;97408.84;;;28.71;nan
20895;BME280;10607;42.066;24.742;2022-09-16T16:20:32;97396.44;;;28.62;nan
20895;BME280;10607;42.066;24.742;2022-09-16T16:22:59;97394.88;;;28.53;nan
20895;BME280;10607;42.066;24.742;2022-09-16T16:25:25;97393.22;;;28.44;nan